Time;durP1;ratioP1;P1;durP2;ratioP2;P2;SDS_P1;SDS_P2;PMS_P1;PMS_P2;Temp;Humidity;BMP_temperature;BMP_pressure;BME280_temperature;BME280_humidity;BME280_pressure;Samples;Min_cycle;Max_cycle;Signal;HPM_P1;HPM_P2
2022/08/28 00:01:29;;;;;;;13.90;3.10;;;;;;;10.93;100.00;102147.22;5075088;28;20369;-76
2022/08/28 00:03:54;;;;;;;7.15;3.00;;;;;;;10.91;100.00;102149.97;5093136;28;20039;-76
2022/08/28 00:06:20;;;;;;;11.35;3.03;;;;;;;10.89;100.00;102143.91;5093519;28;20029;-76
2022/08/28 00:08:45;;;;;;;6.28;3.00;;;;;;;10.89;100.00;102159.03;5092985;28;20035;-75
2022/08/28 00:11:12;;;;;;;9.18;3.30;;;;;;;10.87;100.00;102156.47;5093334;28;20617;-76
2022/08/28 00:13:37;;;;;;;8.73;3.03;;;;;;;10.84;100.00;102146.03;5092976;28;20036;-76
2022/08/28 00:16:03;;;;;;;5.43;3.20;;;;;;;10.85;100.00;102146.88;5093134;28;20028;-77
2022/08/28 00:18:30;;;;;;;5.28;2.63;;;;;;;10.84;100.00;102155.81;5093327;28;20098;-76
2022/08/28 00:20:56;;;;;;;5.88;2.90;;;;;;;10.82;100.00;102165.75;5092895;28;20032;-76
2022/08/28 00:23:24;;;;;;;4.85;2.60;;;;;;;10.80;100.00;102159.69;5093357;28;20031;-76
2022/08/28 00:25:50;;;;;;;11.30;2.92;;;;;;;10.81;100.00;102164.91;5092682;28;20020;-75
2022/08/28 00:28:16;;;;;;;8.23;3.03;;;;;;;10.79;100.00;102160.63;5092944;28;20040;-76
2022/08/28 00:30:48;;;;;;;5.78;2.90;;;;;;;10.77;100.00;102163.41;5092513;28;20400;-76
2022/08/28 00:33:28;;;;;;;10.32;3.20;;;;;;;10.77;100.00;102158.09;5092734;28;20034;-76
2022/08/28 00:35:56;;;;;;;6.10;2.65;;;;;;;10.75;100.00;102166.19;5092298;28;20468;-76
2022/08/28 00:38:23;;;;;;;7.22;2.90;;;;;;;10.73;100.00;102165.44;5092829;28;20032;-77
2022/08/28 00:40:52;;;;;;;5.35;2.50;;;;;;;10.71;100.00;102167.34;5074133;28;20043;-76
2022/08/28 00:43:38;;;;;;;6.13;2.78;;;;;;;10.72;100.00;102168.22;5092662;28;20028;-77
2022/08/28 00:46:08;;;;;;;7.30;2.70;;;;;;;10.69;100.00;102169.28;5092838;28;20016;-77
2022/08/28 00:48:34;;;;;;;9.25;2.90;;;;;;;10.67;100.00;102171.16;5092731;28;20055;-77
2022/08/28 00:53:45;;;;;;;4.22;2.60;;;;;;;10.67;100.00;102170.34;5092391;28;20080;-77
2022/08/28 00:56:12;;;;;;;4.30;2.65;;;;;;;10.64;100.00;102162.56;5092965;28;20383;-75
2022/08/28 00:58:40;;;;;;;6.13;2.53;;;;;;;10.62;100.00;102165.34;5057866;28;20039;-75
2022/08/28 01:01:06;;;;;;;9.88;2.95;;;;;;;10.61;100.00;102168.09;5092585;28;20053;-76
2022/08/28 01:03:32;;;;;;;5.60;2.80;;;;;;;10.60;100.00;102164.59;5092356;28;20024;-76
2022/08/28 01:05:57;;;;;;;9.88;3.40;;;;;;;10.59;100.00;102158.41;5092423;28;20468;-76
2022/08/28 01:08:23;;;;;;;6.72;2.80;;;;;;;10.57;100.00;102162.16;5092195;28;20032;-75
2022/08/28 01:10:52;;;;;;;8.45;3.35;;;;;;;10.57;100.00;102165.66;5091839;28;20428;-76
2022/08/28 01:13:19;;;;;;;7.47;2.90;;;;;;;10.56;100.00;102166.59;5092584;28;20029;-76
2022/08/28 01:15:45;;;;;;;7.05;2.97;;;;;;;10.55;100.00;102167.59;5091757;28;20028;-76
2022/08/28 01:18:14;;;;;;;5.47;2.63;;;;;;;10.55;100.00;102158.72;5091892;28;20055;-76
2022/08/28 01:20:50;;;;;;;6.55;2.72;;;;;;;10.54;100.00;102160.53;5092006;28;20044;-77
2022/08/28 01:23:31;;;;;;;7.50;2.80;;;;;;;10.52;100.00;102153.63;5092529;28;20036;-76
2022/08/28 01:25:59;;;;;;;6.20;2.55;;;;;;;10.51;100.00;102151.91;5073584;28;20093;-75
2022/08/28 01:28:24;;;;;;;7.05;2.63;;;;;;;10.49;100.00;102152.00;5092204;28;20056;-76
2022/08/28 01:30:49;;;;;;;5.63;2.75;;;;;;;10.47;100.00;102151.28;5091724;28;20046;-76
2022/08/28 01:33:15;;;;;;;9.45;3.05;;;;;;;10.46;100.00;102154.88;5092129;28;20086;-76
2022/08/28 01:35:44;;;;;;;6.63;3.33;;;;;;;10.47;100.00;102155.75;5073957;28;20036;-76
2022/08/28 01:38:09;;;;;;;8.20;3.10;;;;;;;10.45;100.00;102152.34;5092014;28;20032;-75
2022/08/28 01:40:39;;;;;;;5.22;3.05;;;;;;;10.43;100.00;102146.28;5092113;28;20394;-76
2022/08/28 01:43:11;;;;;;;4.32;2.40;;;;;;;10.41;100.00;102155.22;5091599;28;20047;-76
2022/08/28 01:45:41;;;;;;;7.10;2.50;;;;;;;10.41;100.00;102157.03;5093662;28;20556;-76
2022/08/28 01:48:07;;;;;;;5.80;2.70;;;;;;;10.40;100.00;102153.53;5077687;28;20062;-76
2022/08/28 01:50:34;;;;;;;6.25;2.90;;;;;;;10.39;100.00;102150.97;5096361;28;20047;-76
2022/08/28 01:53:00;;;;;;;6.63;2.60;;;;;;;10.39;100.00;102156.28;5095891;28;20036;-76
2022/08/28 01:55:26;;;;;;;5.90;2.20;;;;;;;10.38;100.00;102159.91;5095911;28;20036;-76
2022/08/28 01:57:53;;;;;;;4.75;2.05;;;;;;;10.37;100.00;102160.84;5077545;28;20039;-76
2022/08/28 02:00:19;;;;;;;6.25;2.80;;;;;;;10.34;100.00;102155.75;5095836;28;20134;-76
2022/08/28 02:02:46;;;;;;;4.70;2.40;;;;;;;10.33;100.00;102160.22;5095718;28;20060;-76
2022/08/28 02:05:11;;;;;;;5.63;2.28;;;;;;;10.30;100.00;102160.41;5096039;28;20468;-75
2022/08/28 02:07:37;;;;;;;4.78;2.50;;;;;;;10.31;100.00;102158.59;5077503;28;20036;-76
2022/08/28 02:10:04;;;;;;;6.20;2.83;;;;;;;10.30;100.00;102162.19;5095517;28;20476;-76
2022/08/28 02:12:30;;;;;;;4.22;2.33;;;;;;;10.29;100.00;102166.66;5077549;28;20029;-75
2022/08/28 02:14:56;;;;;;;5.10;2.50;;;;;;;10.26;100.00;102164.22;5095689;28;20036;-76
2022/08/28 02:17:21;;;;;;;5.18;2.72;;;;;;;10.27;100.00;102175.72;5095710;28;20364;-76
2022/08/28 02:19:46;;;;;;;6.13;2.70;;;;;;;10.24;100.00;102177.63;5077767;28;20153;-76
2022/08/28 02:22:12;;;;;;;3.78;2.20;;;;;;;10.23;100.00;102175.91;5095952;28;20032;-75
2022/08/28 02:24:38;;;;;;;7.00;2.40;;;;;;;10.23;100.00;102175.06;5095753;28;20039;-76
2022/08/28 02:27:04;;;;;;;4.60;2.30;;;;;;;10.21;100.00;102176.97;5077398;28;20036;-76
2022/08/28 02:29:30;;;;;;;5.00;2.47;;;;;;;10.20;100.00;102173.47;5095672;28;20032;-76
2022/08/28 02:31:55;;;;;;;6.35;2.53;;;;;;;10.20;100.00;102173.47;5096293;28;20039;-76
2022/08/28 02:34:21;;;;;;;5.78;2.58;;;;;;;10.20;100.00;102172.63;5077611;28;20451;-76
2022/08/28 02:36:47;;;;;;;5.65;2.60;;;;;;;10.19;100.00;102176.22;5095761;28;20032;-76
2022/08/28 02:39:13;;;;;;;4.20;2.28;;;;;;;10.18;100.00;102170.06;5094810;28;20544;-76
2022/08/28 02:41:39;;;;;;;4.50;2.22;;;;;;;10.17;100.00;102175.50;5095573;28;20028;-76
2022/08/28 02:44:04;;;;;;;5.28;2.38;;;;;;;10.15;100.00;102170.28;5094672;28;20149;-76
2022/08/28 02:46:30;;;;;;;4.65;2.42;;;;;;;10.14;100.00;102173.03;5095253;28;20032;-76
2022/08/28 02:48:55;;;;;;;4.88;2.50;;;;;;;10.14;100.00;102175.72;5095083;28;20035;-75
2022/08/28 02:51:21;;;;;;;5.20;2.30;;;;;;;10.13;100.00;102166.00;5077217;28;20161;-76
2022/08/28 02:53:48;;;;;;;5.93;2.20;;;;;;;10.12;100.00;102175.81;5095338;28;20475;-76
2022/08/28 02:56:13;;;;;;;5.25;2.50;;;;;;;10.11;100.00;102181.22;5094195;28;20048;-76
2022/08/28 02:58:39;;;;;;;4.88;2.55;;;;;;;10.10;100.00;102174.19;5094116;28;20040;-77
2022/08/28 03:01:08;;;;;;;5.35;2.30;;;;;;;10.08;100.00;102179.63;5094248;28;20028;-76
2022/08/28 03:03:34;;;;;;;7.30;2.92;;;;;;;10.09;100.00;102180.47;5094743;28;20036;-76
2022/08/28 03:06:01;;;;;;;6.05;2.45;;;;;;;10.09;100.00;102183.13;5094497;28;20421;-77
2022/08/28 03:08:27;;;;;;;6.22;2.50;;;;;;;10.06;100.00;102186.84;5060040;28;20112;-75
2022/08/28 03:10:53;;;;;;;4.85;2.13;;;;;;;10.05;100.00;102185.16;5094757;28;20031;-76
2022/08/28 03:13:19;;;;;;;4.43;2.25;;;;;;;10.06;100.00;102190.38;5095167;28;20451;-76
2022/08/28 03:15:45;;;;;;;3.42;2.25;;;;;;;10.10;100.00;102190.16;5059740;28;20032;-75
2022/08/28 03:18:12;;;;;;;5.20;2.22;;;;;;;10.14;100.00;102187.19;5094000;28;20060;-76
2022/08/28 03:20:38;;;;;;;5.93;2.38;;;;;;;10.21;100.00;102185.81;5094760;28;20143;-76
2022/08/28 03:25:48;;;;;;;6.60;2.70;;;;;;;10.39;100.00;102185.56;5094450;28;20043;-76
2022/08/28 03:28:13;;;;;;;6.55;2.35;;;;;;;10.45;100.00;102186.94;5093988;28;20048;-76
2022/08/28 03:30:38;;;;;;;4.05;2.00;;;;;;;10.49;100.00;102186.59;5076314;28;20528;-77
2022/08/28 03:33:04;;;;;;;8.13;2.63;;;;;;;10.55;100.00;102190.66;5075622;28;20036;-76
2022/08/28 03:35:29;;;;;;;4.35;2.30;;;;;;;10.57;100.00;102189.59;5094276;28;20114;-76
2022/08/28 03:37:55;;;;;;;6.07;2.80;;;;;;;10.59;100.00;102189.50;5093987;28;20346;-75
2022/08/28 03:40:20;;;;;;;6.95;2.55;;;;;;;10.59;100.00;102193.00;5093698;28;20386;-76
2022/08/28 03:42:46;;;;;;;8.73;2.50;;;;;;;10.62;100.00;102193.78;5094142;28;20439;-76
2022/08/28 03:45:12;;;;;;;4.65;2.20;;;;;;;10.62;100.00;102189.28;5093754;28;20127;-75
2022/08/28 03:47:39;;;;;;;4.60;2.35;;;;;;;10.62;100.00;102189.28;5093998;28;20031;-75
2022/08/28 03:50:07;;;;;;;6.97;2.80;;;;;;;10.56;100.00;102193.22;5093631;28;20042;-76
2022/08/28 03:52:32;;;;;;;6.18;2.38;;;;;;;10.54;100.00;102197.81;5093737;28;20111;-76
2022/08/28 03:54:57;;;;;;;4.22;2.40;;;;;;;10.54;100.00;102194.31;5093712;28;20487;-77
2022/08/28 03:57:23;;;;;;;8.88;2.83;;;;;;;10.56;100.00;102193.22;5075096;28;20048;-76
2022/08/28 03:59:52;;;;;;;4.15;2.28;;;;;;;10.58;100.00;102188.66;5075650;28;20035;-76
2022/08/28 04:02:19;;;;;;;4.75;2.53;;;;;;;10.61;100.00;102197.38;5093543;28;20028;-76
2022/08/28 04:04:49;;;;;;;9.15;2.60;;;;;;;10.65;100.00;102198.88;5093596;28;20035;-76
2022/08/28 04:07:15;;;;;;;7.63;2.63;;;;;;;10.73;100.00;102207.16;5074954;28;20394;-76
2022/08/28 04:09:40;;;;;;;6.80;2.38;;;;;;;10.83;100.00;102210.06;5093114;28;20063;-76
2022/08/28 04:12:07;;;;;;;4.90;2.22;;;;;;;10.90;100.00;102214.84;5093010;28;20115;-76
2022/08/28 04:14:34;;;;;;;6.90;2.42;;;;;;;11.00;100.00;102217.72;5093598;28;20051;-76
2022/08/28 04:16:59;;;;;;;8.32;2.33;;;;;;;11.07;100.00;102212.78;5093400;28;20036;-76
2022/08/28 04:19:24;;;;;;;5.93;2.53;;;;;;;11.15;100.00;102213.13;5093018;28;20043;-76
2022/08/28 04:21:50;;;;;;;8.02;3.10;;;;;;;11.23;100.00;102213.41;5093343;28;20472;-77
2022/08/28 04:24:16;;;;;;;8.95;2.28;;;;;;;11.31;100.00;102214.66;5092882;28;20035;-77
2022/08/28 04:26:41;;;;;;;9.48;2.50;;;;;;;11.35;100.00;102218.81;5093434;28;20028;-76
2022/08/28 04:29:07;;;;;;;9.18;2.40;;;;;;;11.38;100.00;102216.78;5092947;28;20043;-76
2022/08/28 04:31:33;;;;;;;9.38;2.63;;;;;;;11.41;100.00;102211.22;5093121;28;20485;-76
2022/08/28 04:34:05;;;;;;;6.72;2.40;;;;;;;11.42;100.00;102218.28;5093337;28;20547;-76
2022/08/28 04:36:34;;;;;;;8.18;3.13;;;;;;;11.42;100.00;102220.94;5093391;28;20509;-76
2022/08/28 04:39:01;;;;;;;7.05;2.63;;;;;;;11.43;100.00;102216.44;5092783;28;20432;-76
2022/08/28 04:41:27;;;;;;;7.35;2.30;;;;;;;11.44;100.00;102216.34;5092673;28;20040;-76
2022/08/28 04:43:55;;;;;;;5.03;1.98;;;;;;;11.47;100.00;102221.44;5093113;28;20035;-76
2022/08/28 04:46:21;;;;;;;8.02;2.70;;;;;;;11.48;100.00;102219.66;5092460;28;20034;-76
2022/08/28 04:48:46;;;;;;;9.18;2.88;;;;;;;11.51;100.00;102218.53;5074662;28;20115;-76
2022/08/28 04:51:13;;;;;;;6.22;2.25;;;;;;;11.53;100.00;102220.16;5074420;28;20028;-76
2022/08/28 04:53:39;;;;;;;8.65;2.53;;;;;;;11.56;100.00;102219.91;5092695;28;20028;-76
2022/08/28 04:56:07;;;;;;;9.18;2.53;;;;;;;11.59;100.00;102227.69;5074857;28;20094;-78
2022/08/28 04:58:33;;;;;;;7.78;2.40;;;;;;;11.64;100.00;102227.34;5074359;28;20034;-74
2022/08/28 05:01:04;;;;;;;6.50;2.50;;;;;;;11.67;100.00;102228.94;5092840;28;20039;-76
2022/08/28 05:03:31;;;;;;;8.10;2.30;;;;;;;11.72;100.00;102229.44;5092154;28;20024;-75
2022/08/28 05:05:57;;;;;;;6.25;2.17;;;;;;;11.77;100.00;102232.66;5074366;28;20036;-76
2022/08/28 05:08:26;;;;;;;11.70;2.22;;;;;;;11.85;100.00;102240.91;5091921;28;20387;-75
2022/08/28 05:10:52;;;;;;;7.47;3.00;;;;;;;11.94;100.00;102242.09;5092163;28;20439;-76
2022/08/28 05:13:18;;;;;;;4.63;2.28;;;;;;;12.00;100.00;102236.28;5091901;28;20055;-76
2022/08/28 05:15:48;;;;;;;10.68;2.42;;;;;;;12.05;100.00;102238.66;5092447;28;20024;-76
2022/08/28 05:18:15;;;;;;;9.32;2.72;;;;;;;12.09;100.00;102235.63;5073656;28;20048;-77
2022/08/28 05:20:43;;;;;;;6.75;2.50;;;;;;;12.12;100.00;102238.06;5073278;28;20058;-76
2022/08/28 05:23:09;;;;;;;9.27;2.40;;;;;;;12.15;100.00;102243.19;5092084;28;20024;-77
2022/08/28 05:25:42;;;;;;;7.57;2.50;;;;;;;12.22;100.00;102242.72;5073923;28;20583;-76
2022/08/28 05:28:09;;;;;;;6.85;2.20;;;;;;;12.27;100.00;102249.41;5092058;28;20036;-76
2022/08/28 05:30:37;;;;;;;7.25;2.35;;;;;;;12.34;100.00;102239.94;5091419;28;20115;-77
2022/08/28 05:33:03;;;;;;;9.52;3.40;;;;;;;12.45;100.00;102246.28;5073803;28;20142;-77
2022/08/28 05:35:32;;;;;;;6.85;3.50;;;;;;;12.56;100.00;102250.81;5091759;28;20032;-76
2022/08/28 05:37:57;;;;;;;8.82;3.97;;;;;;;12.66;100.00;102249.16;5091900;28;20063;-76
2022/08/28 05:40:23;;;;;;;8.63;4.03;;;;;;;12.78;100.00;102250.88;5091573;28;20142;-76
2022/08/28 05:42:49;;;;;;;6.32;2.80;;;;;;;12.88;100.00;102250.97;5091947;28;20043;-76
2022/08/28 05:45:15;;;;;;;14.18;3.10;;;;;;;12.96;100.00;102253.09;5073796;28;20032;-78
2022/08/28 05:47:42;;;;;;;8.23;2.67;;;;;;;12.99;100.00;102253.69;5091704;28;20028;-76
2022/08/28 05:50:08;;;;;;;11.55;3.00;;;;;;;12.97;100.00;102260.97;5091971;28;20421;-76
2022/08/28 05:52:35;;;;;;;6.22;3.10;;;;;;;12.92;100.00;102254.28;5091428;28;20052;-76
2022/08/28 05:55:00;;;;;;;6.60;2.35;;;;;;;12.85;100.00;102251.22;5091894;28;20060;-76
2022/08/28 05:57:26;;;;;;;8.30;2.28;;;;;;;12.81;100.00;102257.81;5073123;28;20060;-76
2022/08/28 05:59:52;;;;;;;10.15;2.92;;;;;;;12.78;100.00;102256.22;5091676;28;20365;-76
2022/08/28 06:02:18;;;;;;;8.40;3.00;;;;;;;12.76;100.00;102260.78;5091086;28;20488;-77
2022/08/28 06:04:44;;;;;;;7.57;2.13;;;;;;;12.77;100.00;102264.34;5091598;28;20024;-76
2022/08/28 06:07:11;;;;;;;6.32;2.10;;;;;;;12.80;100.00;102264.94;5091842;28;20028;-76
2022/08/28 06:09:37;;;;;;;10.05;1.88;;;;;;;12.85;100.00;102254.78;5056499;28;20032;-76
2022/08/28 06:12:03;;;;;;;11.07;2.53;;;;;;;12.91;100.00;102264.09;5091601;28;20043;-76
2022/08/28 06:14:30;;;;;;;7.22;2.00;;;;;;;12.94;100.00;102261.19;5091250;28;20121;-76
2022/08/28 06:16:56;;;;;;;5.88;2.08;;;;;;;12.99;100.00;102256.34;5091473;28;20506;-76
2022/08/28 06:19:24;;;;;;;6.75;1.90;;;;;;;13.05;100.00;102261.22;5091264;28;20468;-77
2022/08/28 06:21:52;;;;;;;7.75;2.65;;;;;;;13.15;100.00;102265.81;5091544;28;20032;-76
2022/08/28 06:24:18;;;;;;;7.78;3.40;;;;;;;13.22;100.00;102256.34;5091439;28;20122;-77
2022/08/28 06:26:44;;;;;;;7.07;2.67;;;;;;;13.31;100.00;102262.78;5091544;28;20476;-77
2022/08/28 06:29:12;;;;;;;5.70;2.05;;;;;;;13.37;100.00;102265.84;5091431;28;20035;-77
2022/08/28 06:31:38;;;;;;;4.63;1.70;;;;;;;13.48;100.00;102269.47;5093008;28;20053;-76
2022/08/28 06:34:04;;;;;;;7.13;2.05;;;;;;;13.55;100.00;102270.69;5097532;28;20100;-77
2022/08/28 06:36:33;;;;;;;7.72;1.88;;;;;;;13.63;100.00;102267.41;5079104;28;20032;-76
2022/08/28 06:39:00;;;;;;;7.97;1.70;;;;;;;13.70;100.00;102274.81;5079701;28;20476;-76
2022/08/28 06:41:27;;;;;;;8.00;2.22;;;;;;;13.78;100.00;102273.31;5078740;28;20466;-76
2022/08/28 06:43:54;;;;;;;3.28;1.50;;;;;;;13.87;100.00;102272.59;5096077;28;20054;-78
2022/08/28 06:46:20;;;;;;;5.90;1.73;;;;;;;13.95;100.00;102271.97;5096487;28;20032;-76
2022/08/28 06:48:45;;;;;;;4.95;1.95;;;;;;;14.01;100.00;102271.44;5095234;28;20062;-76
2022/08/28 06:51:12;;;;;;;10.02;3.35;;;;;;;14.07;100.00;102271.78;5094805;28;20456;-76
2022/08/28 06:53:39;;;;;;;10.13;1.90;;;;;;;14.14;100.00;102272.13;5076324;28;20373;-76
2022/08/28 06:56:10;;;;;;;10.77;2.28;;;;;;;14.21;100.00;102284.03;5094877;28;20032;-76
2022/08/28 06:58:37;;;;;;;;;;;;;;;14.32;100.00;102271.59;5094325;28;20111;-76
2022/08/28 07:01:10;;;;;;;5.78;1.77;;;;;;;14.45;100.00;102281.13;5076950;28;20256;-76
2022/08/28 07:03:36;;;;;;;3.65;1.55;;;;;;;14.55;100.00;102286.53;5094262;28;20032;-75
2022/08/28 07:06:03;;;;;;;6.57;1.55;;;;;;;14.61;100.00;102278.03;5076347;28;20035;-76
2022/08/28 07:08:30;;;;;;;7.15;1.73;;;;;;;14.70;100.00;102287.09;5094021;28;20035;-76
2022/08/28 07:10:57;;;;;;;8.18;1.90;;;;;;;14.84;100.00;102280.56;5076720;28;20057;-76
2022/08/28 07:13:23;;;;;;;6.32;1.63;;;;;;;14.99;100.00;102281.91;5094368;28;20054;-76
2022/08/28 07:15:48;;;;;;;6.15;1.80;;;;;;;15.14;100.00;102281.56;5075924;28;20036;-75
2022/08/28 07:18:14;;;;;;;8.43;1.92;;;;;;;15.29;100.00;102290.09;5094279;28;20052;-75
2022/08/28 07:20:40;;;;;;;4.65;1.48;;;;;;;15.46;100.00;102288.59;5075820;28;20035;-75
2022/08/28 07:23:06;;;;;;;5.43;1.63;;;;;;;15.63;100.00;102289.78;5094527;28;20028;-77
2022/08/28 07:25:32;;;;;;;4.40;1.98;;;;;;;15.80;97.65;102299.03;5094306;28;20032;-76
2022/08/28 07:27:59;;;;;;;3.83;1.55;;;;;;;15.85;96.04;102305.69;5094281;28;20035;-75
2022/08/28 07:30:24;;;;;;;6.00;1.77;;;;;;;15.87;96.05;102305.56;5094287;28;20035;-75
2022/08/28 07:32:49;;;;;;;7.65;1.55;;;;;;;15.88;94.61;102306.41;5093938;28;20028;-76
2022/08/28 07:35:15;;;;;;;10.35;1.60;;;;;;;15.94;95.74;102300.47;5094001;28;20151;-76
2022/08/28 07:37:41;;;;;;;4.97;1.70;;;;;;;16.03;95.11;102310.38;5093420;28;20032;-75
2022/08/28 07:40:09;;;;;;;7.22;1.90;;;;;;;16.11;93.94;102309.66;5093957;28;20030;-75
2022/08/28 07:45:19;;;;;;;8.85;1.73;;;;;;;16.29;91.52;102309.84;5094084;28;20089;-75
2022/08/28 07:47:45;;;;;;;5.55;1.63;;;;;;;16.37;91.43;102313.50;5093260;28;20035;-76
2022/08/28 07:50:10;;;;;;;6.35;1.80;;;;;;;16.51;91.35;102314.94;5093697;28;20055;-75
2022/08/28 07:52:36;;;;;;;3.75;1.60;;;;;;;16.64;89.61;102314.63;5093094;28;20034;-77
2022/08/28 07:55:03;;;;;;;5.80;1.60;;;;;;;16.75;88.31;102309.09;5093422;28;20040;-77
2022/08/28 07:57:30;;;;;;;4.78;1.80;;;;;;;16.91;86.23;102318.41;5093778;28;20445;-80
2022/08/28 07:59:55;;;;;;;5.60;1.73;;;;;;;17.06;86.60;102311.63;5093095;28;20040;-79
2022/08/28 08:02:20;;;;;;;6.78;1.67;;;;;;;17.25;85.77;102318.75;5093320;28;20338;-78
2022/08/28 08:04:46;;;;;;;8.52;1.85;;;;;;;17.48;80.61;102317.53;5093036;28;20028;-78
2022/08/28 08:07:11;;;;;;;3.60;1.60;;;;;;;17.85;79.45;102320.16;5075315;28;20032;-78
2022/08/28 08:09:40;;;;;;;3.72;1.60;;;;;;;18.33;76.40;102321.69;5092630;28;20035;-77
2022/08/28 08:12:06;;;;;;;6.97;1.63;;;;;;;18.73;75.12;102326.75;5093360;28;20024;-77
2022/08/28 08:14:32;;;;;;;8.63;2.10;;;;;;;19.03;74.59;102325.44;5093604;28;20043;-78
2022/08/28 08:17:00;;;;;;;5.65;1.70;;;;;;;19.54;71.86;102326.41;5093127;28;20050;-78
2022/08/28 08:19:26;;;;;;;5.03;1.60;;;;;;;19.94;67.86;102329.41;5093094;28;20028;-79
2022/08/28 08:21:52;;;;;;;6.85;1.50;;;;;;;20.34;66.85;102327.81;5074726;28;20032;-77
2022/08/28 08:24:19;;;;;;;7.25;1.83;;;;;;;20.72;65.13;102335.44;5092905;28;20039;-79
2022/08/28 08:26:48;;;;;;;4.72;1.60;;;;;;;21.07;65.47;102333.38;5092749;28;20115;-78
2022/08/28 08:29:14;;;;;;;3.88;1.50;;;;;;;21.01;58.89;102326.78;5074950;28;20060;-80
2022/08/28 08:31:39;;;;;;;5.07;1.60;;;;;;;20.77;63.36;102331.22;5074553;28;20123;-79
2022/08/28 08:34:05;;;;;;;4.28;1.50;;;;;;;20.94;62.95;102326.63;5093314;28;20365;-79
2022/08/28 08:36:34;;;;;;;5.03;1.80;;;;;;;21.12;60.77;102323.72;5074591;28;20452;-80
2022/08/28 08:39:00;;;;;;;7.03;1.98;;;;;;;21.27;62.20;102326.56;5074262;28;20035;-78
2022/08/28 08:41:32;;;;;;;3.38;1.40;;;;;;;21.30;61.20;102325.34;5093183;28;20024;-76
2022/08/28 08:44:15;;;;;;;7.72;1.63;;;;;;;21.06;59.81;102324.38;5092685;28;20448;-79
2022/08/28 08:47:01;;;;;;;3.55;1.48;;;;;;;21.26;60.55;102332.16;5092464;28;20116;-77
2022/08/28 08:49:34;;;;;;;4.65;1.88;;;;;;;21.52;58.76;102331.06;5051912;28;20072;-80
2022/08/28 08:52:30;;;;;;;10.55;1.60;;;;;;;21.82;55.69;102334.81;5092568;28;20085;-78
2022/08/28 08:55:22;;;;;;;6.28;1.90;;;;;;;22.40;55.26;102332.59;5091301;28;20351;-78
2022/08/28 08:57:50;;;;;;;;;;;;;;;22.97;53.82;102324.94;5092778;28;20086;-77
2022/08/28 09:00:18;;;;;;;4.07;1.65;;;;;;;23.57;50.73;102329.38;5092504;28;19970;-77
2022/08/28 09:02:48;;;;;;;2.70;1.50;;;;;;;23.64;50.21;102328.59;5092411;28;20081;-79
2022/08/28 09:05:21;;;;;;;8.60;2.30;;;;;;;23.95;49.20;102325.66;5092778;28;20043;-80
2022/08/28 09:07:55;;;;;;;9.43;1.95;;;;;;;25.14;46.20;102322.28;5092186;28;20031;-80
2022/08/28 09:10:22;;;;;;;9.23;1.88;;;;;;;26.48;42.37;102322.72;5092641;28;20047;-79
2022/08/28 09:12:55;;;;;;;4.70;1.67;;;;;;;26.82;39.38;102320.84;5092292;28;20115;-76
2022/08/28 09:15:34;;;;;;;8.82;1.80;;;;;;;27.78;39.38;102313.84;5092513;28;20079;-75
2022/08/28 09:18:26;;;;;;;4.93;1.42;;;;;;;29.17;37.36;102321.13;5091750;28;20139;-75
2022/08/28 09:20:56;;;;;;;4.28;1.75;;;;;;;28.83;35.17;102315.16;5092044;28;20114;-76
2022/08/28 09:23:23;;;;;;;8.02;1.77;;;;;;;28.93;35.20;102319.28;5092228;28;20028;-75
2022/08/28 09:25:57;;;;;;;3.33;1.70;;;;;;;29.55;34.34;102322.78;5091990;28;20031;-75
2022/08/28 09:28:26;;;;;;;7.47;1.98;;;;;;;29.63;33.20;102318.88;5074020;28;20558;-75
2022/08/28 09:31:01;;;;;;;3.70;1.65;;;;;;;30.31;33.66;102311.38;5091606;28;20028;-77
2022/08/28 09:33:36;;;;;;;3.05;1.73;;;;;;;30.23;31.52;102323.53;5092203;28;20168;-75
2022/08/28 09:36:22;;;;;;;6.40;1.50;;;;;;;30.21;31.69;102309.19;5091774;28;20112;-77
2022/08/28 09:39:24;;;;;;;6.45;1.52;;;;;;;31.05;30.91;102308.22;5091953;28;20054;-81
2022/08/28 09:45:17;;;;;;;3.53;1.83;;;;;;;29.14;31.79;102312.50;5092267;28;20161;-81
2022/08/28 09:47:56;;;;;;;10.40;1.70;;;;;;;28.02;34.51;102311.41;5092277;28;20035;-76
2022/08/28 09:50:27;;;;;;;4.28;1.45;;;;;;;26.57;39.43;102312.44;5092226;28;20036;-76
2022/08/28 09:52:56;;;;;;;9.70;1.52;;;;;;;26.14;39.18;102307.38;5091616;28;20039;-73
2022/08/28 09:55:25;;;;;;;4.00;1.70;;;;;;;28.17;36.17;102305.63;5092083;28;20464;-75
2022/08/28 09:57:53;;;;;;;5.00;1.77;;;;;;;29.44;32.67;102303.53;5091369;28;20472;-75
2022/08/28 10:00:18;;;;;;;5.65;1.90;;;;;;;30.05;34.63;102302.50;5091907;28;20388;-74
2022/08/28 10:03:27;;;;;;;3.47;1.55;;;;;;;29.93;32.57;102298.03;5092252;28;20468;-75
2022/08/28 10:06:03;;;;;;;5.53;1.50;;;;;;;27.72;34.65;102298.31;5091716;28;20114;-75
2022/08/28 10:08:46;;;;;;;6.18;1.80;;;;;;;25.80;39.52;102298.28;5095762;28;20039;-76
2022/08/28 10:11:31;;;;;;;6.47;1.35;;;;;;;24.79;42.35;102310.53;5095713;28;20028;-76
2022/08/28 10:14:08;;;;;;;5.95;1.60;;;;;;;25.22;40.82;102307.66;5095307;28;20115;-78
2022/08/28 10:16:45;;;;;;;4.25;1.55;;;;;;;24.85;41.07;102301.56;5095598;28;20043;-75
2022/08/28 10:19:16;;;;;;;6.53;1.75;;;;;;;25.38;41.50;102301.06;5095172;28;20036;-76
2022/08/28 10:21:49;;;;;;;3.60;1.40;;;;;;;24.88;42.58;102303.06;5095597;28;20144;-75
2022/08/28 10:24:28;;;;;;;4.10;1.38;;;;;;;25.81;39.30;102299.94;5095473;28;20020;-77
2022/08/28 10:27:15;;;;;;;3.90;1.65;;;;;;;25.56;40.31;102305.97;5095164;28;20123;-77
2022/08/28 10:29:41;;;;;;;6.45;1.75;;;;;;;24.29;44.04;102313.25;5095726;28;20024;-76
2022/08/28 10:32:46;;;;;;;6.50;1.92;;;;;;;23.27;47.08;102316.84;5094944;28;20383;-78
2022/08/28 10:35:25;;;;;;;5.63;1.65;;;;;;;22.56;48.43;102315.34;5094825;28;20324;-78
2022/08/28 10:38:07;;;;;;;7.40;1.60;;;;;;;22.09;51.03;102313.63;5094707;28;20035;-78
2022/08/28 10:40:39;;;;;;;5.38;1.83;;;;;;;21.78;53.80;102312.66;5095038;28;20035;-76
2022/08/28 10:43:27;;;;;;;5.65;1.73;;;;;;;21.53;54.71;102314.63;5094915;28;20111;-75
2022/08/28 10:45:53;;;;;;;4.80;1.65;;;;;;;23.33;51.46;102318.81;5094688;28;20457;-76
2022/08/28 10:48:28;;;;;;;5.28;1.45;;;;;;;25.34;43.89;102314.25;5094201;28;20059;-75
2022/08/28 10:51:03;;;;;;;6.95;2.30;;;;;;;25.45;43.73;102320.16;5095514;28;20154;-75
2022/08/28 10:53:44;;;;;;;5.63;2.00;;;;;;;24.50;44.32;102317.81;5060435;28;20474;-76
2022/08/28 10:56:20;;;;;;;5.25;1.45;;;;;;;23.52;46.74;102320.94;5094366;28;20020;-74
2022/08/28 10:58:50;;;;;;;3.72;1.60;;;;;;;23.74;46.61;102318.28;5094552;28;20024;-75
2022/08/28 11:01:31;;;;;;;11.55;1.73;;;;;;;24.33;46.33;102322.69;5095050;28;20031;-75
2022/08/28 11:04:00;;;;;;;6.85;1.88;;;;;;;24.69;45.24;102320.94;5094399;28;20478;-74
2022/08/28 11:06:32;;;;;;;6.47;1.90;;;;;;;26.25;41.10;102317.69;5094741;28;20035;-75
2022/08/28 11:09:23;;;;;;;3.05;1.30;;;;;;;26.09;41.14;102318.09;5094390;28;20032;-75
2022/08/28 11:11:49;;;;;;;4.15;1.65;;;;;;;26.83;38.87;102318.97;5094166;28;20032;-75
2022/08/28 11:14:26;;;;;;;6.63;1.80;;;;;;;27.15;38.79;102325.41;5094021;28;20024;-77
2022/08/28 11:16:55;;;;;;;8.23;1.88;;;;;;;26.30;40.24;102323.34;5094424;28;20499;-78
2022/08/28 11:19:57;;;;;;;2.83;1.38;;;;;;;25.53;42.88;102333.63;5093263;28;20108;-77
2022/08/28 11:22:25;;;;;;;6.00;1.67;;;;;;;24.83;44.11;102320.00;5094371;28;20093;-78
2022/08/28 11:25:14;;;;;;;3.03;1.40;;;;;;;26.02;41.18;102326.25;5094114;28;20036;-78
2022/08/28 11:28:13;;;;;;;3.13;1.50;;;;;;;26.50;40.13;102325.25;5094288;28;20024;-75
2022/08/28 11:30:39;;;;;;;3.38;1.60;;;;;;;25.34;43.26;102327.03;5094332;28;20032;-75
2022/08/28 11:33:07;;;;;;;13.00;2.17;;;;;;;24.37;46.04;102323.97;5093758;28;20141;-76
2022/08/28 11:35:39;;;;;;;4.78;1.77;;;;;;;24.02;47.92;102323.88;5094100;28;20119;-76
2022/08/28 11:38:05;;;;;;;5.05;1.70;;;;;;;24.80;46.31;102318.50;5093451;28;20028;-75
2022/08/28 11:40:33;;;;;;;5.57;1.80;;;;;;;25.46;42.71;102319.13;5094041;28;20031;-78